createdAt,value
2024-05-09T00:00:22.321Z,58.151748
2024-05-09T00:05:16.652Z,58.508392
2024-05-09T00:10:25.223Z,58.404225
2024-05-09T00:15:16.465Z,57.911268
2024-05-09T00:20:24.389Z,57.716312
2024-05-09T00:25:16.524Z,58.490780
2024-05-09T00:30:24.348Z,58.050350
2024-05-09T00:35:16.740Z,57.750350
2024-05-09T00:40:30.903Z,57.893007
2024-05-09T00:45:16.967Z,57.280986
2024-05-09T00:50:22.752Z,57.512676
2024-05-09T00:55:16.163Z,57.389655
2024-05-09T01:00:26.116Z,57.244828
2024-05-09T01:05:16.757Z,57.467808
2024-05-09T01:10:21.325Z,57.382313
2024-05-09T01:15:16.615Z,57.897931
2024-05-09T01:20:20.325Z,58.075694
2024-05-09T01:25:16.344Z,58.860839
2024-05-09T01:30:21.021Z,58.978082
2024-05-09T01:35:17.480Z,58.846575
2024-05-09T01:40:21.998Z,59.604138
2024-05-09T01:45:16.936Z,59.187671
2024-05-09T01:50:16.733Z,59.106849
2024-05-09T01:55:16.663Z,59.157143
2024-05-09T02:00:25.875Z,58.747260
2024-05-09T02:05:17.672Z,58.504795
2024-05-09T02:10:23.413Z,58.398639
2024-05-09T02:15:16.766Z,58.621379
2024-05-09T02:20:23.157Z,58.332394
2024-05-09T02:25:16.842Z,58.927083
2024-05-09T02:30:25.845Z,58.720280
2024-05-09T02:35:16.614Z,58.902083
2024-05-09T02:40:25.199Z,58.746528
2024-05-09T02:45:18.005Z,59.135664
2024-05-09T02:50:23.104Z,59.776923
2024-05-09T02:55:16.476Z,59.443056
2024-05-09T03:00:22.784Z,59.495804
2024-05-09T03:05:16.456Z,60.000000
2024-05-09T03:10:22.356Z,60.697222
2024-05-09T03:15:16.205Z,62.274306
2024-05-09T03:20:23.351Z,66.125000
2024-05-09T03:25:16.442Z,66.981379
2024-05-09T03:30:29.206Z,67.483916
2024-05-09T03:35:17.148Z,68.078472
2024-05-09T03:40:23.350Z,68.390278
2024-05-09T03:45:16.544Z,68.355944
2024-05-09T03:50:22.780Z,68.263194
2024-05-09T03:55:16.430Z,68.279720
2024-05-09T04:00:22.581Z,68.319580
2024-05-09T04:05:17.560Z,68.709722
2024-05-09T04:10:24.086Z,68.818182
2024-05-09T04:15:16.308Z,68.517361
2024-05-09T04:20:28.699Z,68.132168
2024-05-09T04:25:16.830Z,67.868531
2024-05-09T04:30:25.543Z,67.900694
2024-05-09T04:35:17.190Z,68.322917
2024-05-09T04:40:24.346Z,69.975352
2024-05-09T04:45:16.435Z,71.573050
2024-05-09T04:50:24.670Z,72.008451
2024-05-09T04:55:16.567Z,72.899301
2024-05-09T05:00:21.866Z,72.968310
2024-05-09T05:05:16.959Z,72.626429
2024-05-09T05:10:21.615Z,72.230000
2024-05-09T05:15:17.172Z,72.173571
2024-05-09T05:20:24.472Z,71.726241
2024-05-09T05:25:16.339Z,71.682270
2024-05-09T05:30:21.536Z,72.459574
2024-05-09T05:35:16.619Z,69.927465
2024-05-09T05:40:27.584Z,70.275887
2024-05-09T05:45:16.552Z,70.459859
2024-05-09T05:50:24.618Z,70.466667
2024-05-09T05:55:16.494Z,70.297183
2024-05-09T06:00:26.036Z,70.458156
2024-05-09T06:05:16.623Z,70.745455
2024-05-09T06:10:21.508Z,71.080986
2024-05-09T06:15:17.346Z,72.435915
2024-05-09T06:20:31.275Z,72.143662
2024-05-09T06:25:17.120Z,71.458451
2024-05-09T06:30:25.759Z,70.948936
2024-05-09T06:35:16.550Z,70.825000
2024-05-09T06:40:21.415Z,70.795804
2024-05-09T06:45:17.084Z,71.879577
2024-05-09T06:50:23.738Z,72.520423
2024-05-09T06:55:16.660Z,71.373944
2024-05-09T07:00:23.082Z,70.238889
2024-05-09T07:05:16.822Z,69.819178
2024-05-09T07:10:22.139Z,68.900699
2024-05-09T07:15:16.287Z,69.786897
2024-05-09T07:20:23.658Z,68.473288
2024-05-09T07:25:16.329Z,68.779592
2024-05-09T07:30:23.522Z,69.794558
2024-05-09T07:35:21.628Z,69.343151
2024-05-09T07:40:24.958Z,69.251748
2024-05-09T07:45:39.654Z,70.278621
2024-05-09T07:52:23.538Z,71.029167
2024-05-09T07:55:17.454Z,70.679861
2024-05-09T08:00:23.794Z,70.362500
2024-05-09T08:05:16.461Z,69.929861
2024-05-09T08:10:22.153Z,70.386014
2024-05-09T08:15:16.677Z,71.040972
2024-05-09T08:20:26.581Z,70.877083
2024-05-09T08:25:18.700Z,71.009028
2024-05-09T08:30:24.619Z,70.923288
2024-05-09T08:35:16.634Z,71.299306
2024-05-09T08:40:24.172Z,71.446154
2024-05-09T08:45:16.866Z,71.129167
2024-05-09T08:50:28.383Z,71.915278
2024-05-09T08:55:16.382Z,71.940278
2024-05-09T09:00:33.727Z,71.639716
2024-05-09T09:05:16.841Z,71.170000
2024-05-09T09:10:24.955Z,71.009155
2024-05-09T09:15:16.996Z,70.825352
2024-05-09T09:20:23.247Z,70.975352
2024-05-09T09:25:17.491Z,71.230986
2024-05-09T09:30:30.859Z,71.490780
2024-05-09T09:35:16.853Z,71.537500
2024-05-09T09:40:18.375Z,71.715972
2024-05-09T09:45:17.117Z,71.341259
2024-05-09T09:50:23.569Z,72.029167
2024-05-09T09:55:16.761Z,72.280000
2024-05-09T10:00:24.027Z,72.053691
2024-05-09T10:05:17.400Z,73.000000
2024-05-09T10:10:19.931Z,73.653793
2024-05-09T10:15:16.347Z,74.145455
2024-05-09T10:20:22.008Z,75.134266
2024-05-09T10:25:18.055Z,75.962143
2024-05-09T10:30:25.410Z,75.558865
2024-05-09T10:35:16.650Z,75.890141
2024-05-09T10:40:23.430Z,76.742029
2024-05-09T10:45:16.231Z,77.473913
2024-05-09T10:50:25.698Z,77.287413
2024-05-09T10:55:16.889Z,76.421127
2024-05-09T11:00:27.062Z,76.315972
2024-05-09T11:05:17.663Z,76.014085
2024-05-09T11:10:24.382Z,76.035915
2024-05-09T11:15:17.575Z,76.770213
2024-05-09T11:20:23.248Z,77.414184
2024-05-09T11:25:17.496Z,77.809929
2024-05-09T11:30:21.321Z,78.040845
2024-05-09T11:35:16.672Z,79.012587
2024-05-09T11:40:25.223Z,79.121831
2024-05-09T11:45:16.507Z,79.950704
2024-05-09T11:50:26.761Z,79.357447
2024-05-09T11:55:17.804Z,79.535915
2024-05-09T12:00:25.222Z,79.746099
2024-05-09T12:05:16.955Z,79.969504
2024-05-09T12:10:22.137Z,79.580142
2024-05-09T12:15:16.887Z,79.920567
2024-05-09T12:20:25.155Z,79.797163
2024-05-09T12:25:17.623Z,79.120000
2024-05-09T12:30:28.806Z,78.477698
2024-05-09T12:35:16.624Z,78.401449
2024-05-09T12:40:26.246Z,78.481295
2024-05-09T12:45:16.332Z,78.250360
2024-05-09T12:50:25.070Z,77.928369
2024-05-09T12:55:16.486Z,78.003521
2024-05-09T13:00:23.787Z,77.983688
2024-05-09T13:05:17.052Z,77.975352
2024-05-09T13:10:25.500Z,77.851449
2024-05-09T13:15:17.640Z,78.024648
2024-05-09T13:20:25.749Z,77.764286
2024-05-09T13:25:17.061Z,77.792806
2024-05-09T13:30:25.914Z,77.251773
2024-05-09T13:35:16.439Z,75.467832
2024-05-09T13:40:26.687Z,74.107746
2024-05-09T13:45:17.109Z,71.580851
2024-05-09T13:50:27.601Z,71.016197
2024-05-09T13:55:16.215Z,72.429078
2024-05-09T14:00:27.396Z,71.398582
2024-05-09T14:05:16.885Z,70.039437
2024-05-09T14:10:23.256Z,69.376056
2024-05-09T14:15:17.204Z,71.403546
2024-05-09T14:20:28.170Z,72.657447
2024-05-09T14:25:16.452Z,74.698582
2024-05-09T14:30:25.881Z,75.655319
2024-05-09T14:35:16.429Z,75.006338
2024-05-09T14:40:30.524Z,76.059574
2024-05-09T14:45:16.856Z,77.512766
2024-05-09T14:50:23.775Z,77.158865
2024-05-09T14:55:17.228Z,75.856338
2024-05-09T15:00:25.544Z,75.386525
2024-05-09T15:05:17.116Z,75.287943
2024-05-09T15:10:23.869Z,74.853521
2024-05-09T15:15:16.453Z,74.309859
2024-05-09T15:20:17.539Z,73.652817
2024-05-09T15:25:16.732Z,72.562411
2024-05-09T15:30:23.872Z,72.028169
2024-05-09T15:35:16.289Z,71.534752
2024-05-09T15:40:26.140Z,71.671631
2024-05-09T15:45:16.214Z,72.585211
2024-05-09T15:50:23.501Z,72.697902
2024-05-09T15:55:16.876Z,72.632624
2024-05-09T16:00:24.870Z,72.220280
2024-05-09T16:05:18.177Z,72.384507
2024-05-09T16:10:22.752Z,73.274483
2024-05-09T16:15:17.725Z,74.299315
2024-05-09T16:20:26.425Z,74.060417
2024-05-09T16:25:16.476Z,72.597183
2024-05-09T16:30:24.760Z,72.685816
2024-05-09T16:35:16.533Z,72.757746
2024-05-09T16:40:25.482Z,71.058865
2024-05-09T16:45:17.114Z,71.559859
2024-05-09T16:50:22.596Z,72.059574
2024-05-09T16:55:16.566Z,72.115493
2024-05-09T17:00:25.533Z,71.670423
2024-05-09T17:05:17.143Z,70.328873
2024-05-09T17:10:26.442Z,70.619014
2024-05-09T17:15:16.967Z,69.885816
2024-05-09T17:20:26.042Z,69.183916
2024-05-09T17:25:16.786Z,70.316783
2024-05-09T17:30:27.995Z,69.601408
2024-05-09T17:35:16.585Z,69.285211
2024-05-09T17:40:20.687Z,69.241844
2024-05-09T17:45:16.402Z,69.817730
2024-05-09T17:50:24.366Z,69.332867
2024-05-09T17:55:16.538Z,69.820423
2024-05-09T18:00:24.666Z,70.778014
2024-05-09T18:05:16.763Z,70.859155
2024-05-09T18:10:22.622Z,69.467361
2024-05-09T18:15:17.152Z,68.982639
2024-05-09T18:20:24.217Z,68.720833
2024-05-09T18:25:16.642Z,67.690972
2024-05-09T18:30:24.024Z,66.932639
2024-05-09T18:35:16.890Z,66.508333
2024-05-09T18:40:24.808Z,65.388652
2024-05-09T18:45:17.023Z,65.193750
2024-05-09T18:50:24.715Z,66.182517
2024-05-09T18:55:16.704Z,65.919444
2024-05-09T19:00:30.705Z,65.362500
2024-05-09T19:05:16.496Z,65.347552
2024-05-09T19:10:22.553Z,65.021528
2024-05-09T19:15:16.968Z,64.219444
2024-05-09T19:20:24.996Z,64.613889
2024-05-09T19:25:16.466Z,63.961111
2024-05-09T19:30:25.283Z,63.826389
2024-05-09T19:35:17.209Z,64.063194
2024-05-09T19:40:24.581Z,63.511806
2024-05-09T19:45:16.076Z,63.419014
2024-05-09T19:50:23.080Z,63.471329
2024-05-09T19:55:17.029Z,62.887324
2024-05-09T20:00:22.198Z,62.484615
2024-05-09T20:05:17.353Z,61.630070
2024-05-09T20:10:23.641Z,61.171329
2024-05-09T20:15:17.370Z,61.045070
2024-05-09T20:20:27.400Z,60.443357
2024-05-09T20:25:16.493Z,61.100000
2024-05-09T20:30:24.772Z,60.754225
2024-05-09T20:35:16.503Z,60.740426
2024-05-09T20:40:25.280Z,60.619580
2024-05-09T20:45:17.188Z,60.279577
2024-05-09T20:50:27.391Z,59.282979
2024-05-09T20:55:18.363Z,59.257042
2024-05-09T21:00:19.260Z,59.272340
2024-05-09T21:05:17.121Z,58.876389
2024-05-09T21:10:22.342Z,58.951064
2024-05-09T21:15:21.495Z,58.915385
2024-05-09T21:20:20.666Z,58.451773
2024-05-09T21:25:17.266Z,57.727465
2024-05-09T21:30:26.703Z,58.674286
2024-05-09T21:35:17.235Z,58.992143
2024-05-09T21:40:26.931Z,59.173944
2024-05-09T21:45:16.404Z,58.616901
2024-05-09T21:50:22.777Z,58.200704
2024-05-09T21:55:16.832Z,57.463380
2024-05-09T22:00:28.311Z,57.910563
2024-05-09T22:05:17.146Z,58.819580
2024-05-09T22:10:25.402Z,59.282639
2024-05-09T22:15:16.430Z,58.629577
2024-05-09T22:20:22.283Z,58.546154
2024-05-09T22:25:16.647Z,57.503521
2024-05-09T22:30:23.802Z,55.483217
2024-05-09T22:35:16.525Z,56.368056
2024-05-09T22:40:24.374Z,57.751064
2024-05-09T22:45:16.373Z,55.480986
2024-05-09T22:50:26.196Z,56.028169
2024-05-09T22:55:17.111Z,57.659859
2024-05-09T23:00:21.684Z,57.480142
2024-05-09T23:05:16.407Z,58.586014
2024-05-09T23:10:24.285Z,58.919014
2024-05-09T23:15:16.684Z,57.932867
2024-05-09T23:20:25.864Z,58.735915
2024-05-09T23:25:16.570Z,58.684507
2024-05-09T23:30:28.302Z,58.765493
2024-05-09T23:35:16.506Z,57.845070
2024-05-09T23:40:19.088Z,57.045775
2024-05-09T23:45:16.418Z,57.282270
2024-05-09T23:50:23.318Z,57.421986
2024-05-09T23:55:16.982Z,58.390210
